Pagrindinis puslapis
METAR-TAF:

METAR-TAF

Oro uostai :

Sankt Moricas, Šveicarija

platuma: 46-32-03N, ilguma: 9-53-03E, Aukštis: 1707 m

Dabartinis oras

Ataskaita buvo paskelbta 36 minutes, ne 02:20 UTC
Vėjas 1 kt iš Vakarų/Pietvakarių
Temperatūra 0°C
Drėgmė 100%
Slėgis 1020 hPa
Matomumas: 9000 m
Išsisklaidę debesys ne aukštis 4300 ft
Su prošvaistėmis ne aukštis 6000 ft

METAR: LSZS 300220Z AUTO 24001KT 9000 SCT043 BKN060 00/00 Q1020 REFZDZ

Laikas: 04:56 (02:56 UTC)

Prognozė

Ataskaita buvo paskelbta 12 valandos ir 31 minutes, ne 14:25 UTC
Prognozė galioja nuo 29 metu 15 UTC su 29 metu 24 UTC
Vėjas 5 kt iš Šiaurės/Šiaurės Rytų
Matomumas 10 km arba daugiau
Išsisklaidę debesys ne aukštis 3800 ft
Su prošvaistėmis ne aukštis 4500 ft

TAF: LSZS 291425Z 2915/2924 02005KT 9999 SCT038 BKN045 TX09/2915Z

Orai ataskaitas ir orų prognozės (METAR, TAF).

turimą stotys yra geltonos ir raudonos taškus žemėlapyje.

Perkelti pele per norėdami pamatyti stoties vardą.

Tada spustelėkite, norėdami matyti oro stebėjimo ir prognozės.

Norėdami pakeisti žemėlapį: spustelėkite ant žalios mygtukų su juodo kryžiaus žemyn,; žalią mygtuką su brūkšneliu, jei norite nutolinti; arba žalių rodyklių gretimoms žemėlapius.


METAR-TAF: